createdAt,value
2024-01-19T00:00:34.076Z,6.28
2024-01-19T00:03:04.153Z,6.38
2024-01-19T00:05:34.550Z,6.38
2024-01-19T00:08:07.887Z,5.75
2024-01-19T00:10:37.991Z,6.10
2024-01-19T00:13:08.972Z,5.50
2024-01-19T00:15:42.402Z,5.80
2024-01-19T00:18:13.326Z,6.10
2024-01-19T00:20:43.551Z,5.33
2024-01-19T00:23:16.249Z,5.70
2024-01-19T00:25:46.391Z,5.80
2024-01-19T00:28:16.477Z,5.65
2024-01-19T00:30:46.781Z,4.93
2024-01-19T00:33:17.263Z,5.40
2024-01-19T00:35:47.656Z,5.03
2024-01-19T00:38:20.468Z,4.70
2024-01-19T00:40:50.556Z,4.78
2024-01-19T00:43:20.638Z,5.28
2024-01-19T00:45:51.673Z,5.30
2024-01-19T00:48:21.832Z,5.00
2024-01-19T00:50:52.036Z,4.53
2024-01-19T00:53:24.877Z,4.43
2024-01-19T00:55:55.003Z,4.18
2024-01-19T00:58:25.092Z,4.27
2024-01-19T01:00:55.498Z,4.10
2024-01-19T01:03:26.648Z,3.70
2024-01-19T01:05:58.595Z,3.75
2024-01-19T01:08:31.635Z,3.58
2024-01-19T01:11:01.793Z,3.70
2024-01-19T01:13:31.931Z,4.18
2024-01-19T01:16:02.346Z,3.53
2024-01-19T01:18:32.544Z,4.07
2024-01-19T01:21:03.022Z,3.50
2024-01-19T01:23:35.788Z,3.55
2024-01-19T01:26:07.236Z,3.92
2024-01-19T01:28:37.465Z,3.67
2024-01-19T01:31:07.935Z,3.88
2024-01-19T01:33:38.234Z,3.22
2024-01-19T01:36:08.885Z,3.25
2024-01-19T01:38:41.763Z,3.58
2024-01-19T01:41:11.930Z,4.57
2024-01-19T01:43:42.014Z,3.50
2024-01-19T01:46:12.107Z,3.40
2024-01-19T01:48:42.554Z,4.10
2024-01-19T01:51:13.426Z,3.63
2024-01-19T01:53:46.222Z,3.63
2024-01-19T01:56:16.510Z,3.20
2024-01-19T01:58:47.207Z,3.35
2024-01-19T02:01:17.621Z,3.43
2024-01-19T02:03:48.842Z,3.77
2024-01-19T02:06:19.227Z,3.42
2024-01-19T02:08:52.180Z,3.20
2024-01-19T02:11:22.353Z,4.07
2024-01-19T02:13:52.501Z,4.30
2024-01-19T02:16:22.583Z,3.50
2024-01-19T02:18:52.883Z,3.38
2024-01-19T02:21:23.308Z,3.95
2024-01-19T02:24:03.300Z,4.15
2024-01-19T02:26:39.876Z,3.45
2024-01-19T02:29:10.100Z,3.58
2024-01-19T02:31:40.289Z,4.80
2024-01-19T02:34:10.462Z,3.53
2024-01-19T02:36:40.568Z,3.90
2024-01-19T02:39:10.778Z,3.53
2024-01-19T02:41:44.012Z,3.75
2024-01-19T02:44:14.160Z,3.60
2024-01-19T02:46:44.222Z,4.10
2024-01-19T02:49:14.376Z,3.10
2024-01-19T02:51:44.443Z,3.33
2024-01-19T02:54:14.537Z,3.33
2024-01-19T02:56:47.341Z,3.17
2024-01-19T02:59:17.707Z,3.22
2024-01-19T03:01:47.939Z,3.30
2024-01-19T03:04:17.973Z,2.70
2024-01-19T03:06:48.208Z,3.05
2024-01-19T03:09:18.337Z,2.25
2024-01-19T03:11:51.153Z,2.70
2024-01-19T03:14:21.330Z,2.53
2024-01-19T03:16:52.575Z,2.70
2024-01-19T03:19:22.736Z,3.10
2024-01-19T03:21:52.813Z,2.63
2024-01-19T03:24:22.862Z,2.85
2024-01-19T03:26:53.013Z,3.40
2024-01-19T03:29:24.364Z,2.92
2024-01-19T03:31:55.429Z,3.05
2024-01-19T03:34:26.792Z,3.10
2024-01-19T03:36:56.911Z,3.47
2024-01-19T03:39:27.207Z,3.08
2024-01-19T03:42:00.075Z,3.38
2024-01-19T03:44:30.407Z,3.17
2024-01-19T03:47:01.137Z,3.83
2024-01-19T03:49:31.346Z,3.53
2024-01-19T03:52:02.741Z,3.28
2024-01-19T03:54:33.873Z,3.70
2024-01-19T03:57:09.067Z,3.83
2024-01-19T03:59:39.181Z,4.32
2024-01-19T04:02:09.481Z,3.40
2024-01-19T04:04:39.731Z,3.75
2024-01-19T04:07:09.948Z,3.47
2024-01-19T04:09:40.049Z,3.15
2024-01-19T04:12:17.648Z,4.05
2024-01-19T04:14:48.985Z,3.75
2024-01-19T04:17:19.238Z,3.80
2024-01-19T04:19:49.321Z,4.00
2024-01-19T04:22:19.393Z,3.80
2024-01-19T04:24:49.519Z,3.80
2024-01-19T04:27:22.233Z,3.83
2024-01-19T04:29:52.401Z,3.80
2024-01-19T04:32:22.525Z,4.43
2024-01-19T04:34:52.614Z,3.85
2024-01-19T04:37:22.745Z,4.45
2024-01-19T04:39:52.809Z,4.10
2024-01-19T04:42:25.564Z,3.57
2024-01-19T04:44:55.652Z,3.90
2024-01-19T04:47:25.809Z,4.35
2024-01-19T04:49:56.081Z,3.70
2024-01-19T04:52:26.184Z,4.20
2024-01-19T04:54:56.271Z,4.60
2024-01-19T04:57:28.987Z,4.03
2024-01-19T04:59:59.091Z,4.70
2024-01-19T05:02:31.239Z,4.13
2024-01-19T05:05:01.735Z,4.18
2024-01-19T05:07:31.872Z,4.10
2024-01-19T05:10:01.908Z,3.95
2024-01-19T05:12:34.615Z,4.22
2024-01-19T05:15:04.977Z,3.88
2024-01-19T05:17:35.125Z,4.35
2024-01-19T05:20:05.329Z,4.32
2024-01-19T05:22:35.454Z,4.80
2024-01-19T05:25:05.618Z,4.20
2024-01-19T05:27:38.348Z,4.50
2024-01-19T05:30:10.306Z,4.57
2024-01-19T05:32:40.448Z,4.13
2024-01-19T05:35:10.847Z,4.83
2024-01-19T05:37:41.805Z,4.30
2024-01-19T05:40:12.646Z,4.40
2024-01-19T05:42:45.499Z,4.53
2024-01-19T05:45:16.362Z,4.28
2024-01-19T05:47:46.699Z,4.30
2024-01-19T05:50:16.972Z,4.57
2024-01-19T05:52:48.799Z,5.57
2024-01-19T05:55:18.908Z,4.63
2024-01-19T05:57:51.630Z,5.10
2024-01-19T06:00:22.491Z,5.07
2024-01-19T06:02:52.720Z,5.38
2024-01-19T06:05:22.959Z,5.70
2024-01-19T06:07:53.012Z,5.57
2024-01-19T06:10:23.132Z,5.80
2024-01-19T06:12:55.772Z,6.82
2024-01-19T06:15:25.860Z,6.20
2024-01-19T06:17:55.978Z,6.80
2024-01-19T06:20:26.046Z,6.28
2024-01-19T06:22:56.287Z,6.60
2024-01-19T06:25:26.425Z,6.80
2024-01-19T06:28:01.635Z,6.53
2024-01-19T06:30:31.839Z,6.75
2024-01-19T06:33:03.194Z,6.95
2024-01-19T06:35:33.399Z,6.95
2024-01-19T06:38:04.619Z,7.78
2024-01-19T06:40:35.309Z,9.35
2024-01-19T06:43:08.408Z,8.25
2024-01-19T06:45:38.447Z,8.52
2024-01-19T06:48:08.976Z,7.95
2024-01-19T06:50:39.124Z,8.18
2024-01-19T06:53:09.239Z,7.80
2024-01-19T06:55:39.344Z,9.25
2024-01-19T06:58:12.060Z,8.40
2024-01-19T07:00:42.204Z,8.80
2024-01-19T07:03:12.618Z,8.95
2024-01-19T07:05:48.123Z,8.57
2024-01-19T07:08:18.475Z,9.35
2024-01-19T07:10:49.914Z,9.27
2024-01-19T07:13:22.631Z,9.40
2024-01-19T07:15:52.770Z,8.40
2024-01-19T07:18:22.949Z,9.13
2024-01-19T07:20:53.156Z,9.40
2024-01-19T07:23:23.371Z,9.90
2024-01-19T07:25:53.503Z,9.50
2024-01-19T07:28:26.642Z,9.57
2024-01-19T07:30:56.758Z,9.45
2024-01-19T07:33:32.455Z,9.20
2024-01-19T07:36:03.724Z,9.68
2024-01-19T07:38:34.108Z,9.82
2024-01-19T07:41:07.671Z,10.70
2024-01-19T07:43:40.441Z,9.20
2024-01-19T07:46:12.519Z,10.93
2024-01-19T07:48:42.740Z,10.17
2024-01-19T07:51:12.923Z,10.90
2024-01-19T07:53:43.000Z,10.52
2024-01-19T07:56:13.149Z,10.90
2024-01-19T07:58:48.976Z,12.18
2024-01-19T08:01:19.195Z,12.93
2024-01-19T08:03:49.497Z,10.70
2024-01-19T08:06:19.762Z,11.23
2024-01-19T08:08:49.924Z,10.73
2024-01-19T08:11:20.131Z,12.88
2024-01-19T08:13:52.876Z,11.95
2024-01-19T08:16:23.107Z,12.18
2024-01-19T08:18:53.417Z,11.73
2024-01-19T08:21:23.663Z,11.95
2024-01-19T08:23:53.770Z,11.98
2024-01-19T08:26:24.020Z,13.02
2024-01-19T08:28:56.767Z,12.45
2024-01-19T08:31:26.937Z,11.93
2024-01-19T08:33:57.470Z,12.15
2024-01-19T08:36:27.992Z,13.40
2024-01-19T08:38:58.329Z,13.40
2024-01-19T08:41:28.872Z,13.23
2024-01-19T08:44:01.764Z,12.90
2024-01-19T08:46:31.816Z,14.20
2024-01-19T08:49:01.996Z,13.90
2024-01-19T08:51:32.349Z,14.32
2024-01-19T08:54:02.497Z,13.30
2024-01-19T08:56:32.666Z,14.30
2024-01-19T08:59:05.470Z,15.10
2024-01-19T09:01:35.634Z,15.68
2024-01-19T09:04:05.975Z,13.88
2024-01-19T09:06:36.338Z,14.17
2024-01-19T09:09:06.687Z,13.65
2024-01-19T09:11:37.618Z,13.98
2024-01-19T09:14:12.684Z,13.38
2024-01-19T09:16:45.827Z,13.60
2024-01-19T09:19:16.601Z,12.50
2024-01-19T09:21:49.040Z,13.10
2024-01-19T09:24:19.173Z,12.60
2024-01-19T09:26:49.295Z,11.82
2024-01-19T09:29:22.129Z,11.75
2024-01-19T09:31:52.266Z,10.53
2024-01-19T09:34:22.383Z,12.20
2024-01-19T09:36:52.531Z,12.23
2024-01-19T09:39:24.425Z,11.97
2024-01-19T09:41:59.036Z,11.20
2024-01-19T09:44:37.821Z,10.37
2024-01-19T09:47:21.444Z,12.50
2024-01-19T09:50:05.047Z,12.83
2024-01-19T09:52:45.958Z,12.00
2024-01-19T09:55:16.115Z,11.90
2024-01-19T09:57:49.446Z,11.90
2024-01-19T10:00:24.675Z,12.47
2024-01-19T10:03:00.969Z,13.07
2024-01-19T10:05:33.944Z,12.57
2024-01-19T10:08:04.138Z,12.53
2024-01-19T10:10:34.208Z,11.70
2024-01-19T10:13:04.266Z,12.00
2024-01-19T10:15:37.020Z,11.33
2024-01-19T10:18:07.945Z,10.93
2024-01-19T10:20:39.845Z,11.20
2024-01-19T10:23:31.169Z,10.73
2024-01-19T10:26:16.357Z,10.33
2024-01-19T10:28:46.494Z,11.47
2024-01-19T10:31:20.102Z,14.90
2024-01-19T10:33:59.100Z,14.23
2024-01-19T10:36:29.493Z,12.70
2024-01-19T10:39:19.519Z,14.70
2024-01-19T10:41:50.012Z,12.67
2024-01-19T10:44:21.607Z,15.97
2024-01-19T10:46:54.430Z,13.50
2024-01-19T10:49:24.507Z,13.00
2024-01-19T10:51:54.727Z,11.80
2024-01-19T10:54:29.239Z,11.43
2024-01-19T10:57:07.435Z,11.68
2024-01-19T10:59:38.598Z,11.10
2024-01-19T11:02:11.427Z,13.00
2024-01-19T11:04:41.934Z,11.03
2024-01-19T11:07:12.210Z,10.57
2024-01-19T11:09:42.392Z,10.77
2024-01-19T11:12:15.466Z,10.63
2024-01-19T11:14:48.270Z,10.30
2024-01-19T11:17:21.270Z,9.17
2024-01-19T11:19:51.371Z,10.80
2024-01-19T11:22:21.897Z,10.53
2024-01-19T11:24:57.044Z,9.57
2024-01-19T11:27:34.290Z,10.53
2024-01-19T11:30:18.196Z,10.10
2024-01-19T11:32:51.635Z,10.00
2024-01-19T11:35:42.627Z,9.23
2024-01-19T11:38:12.740Z,10.40
2024-01-19T11:40:52.042Z,10.10
2024-01-19T11:43:41.071Z,9.67
2024-01-19T11:46:11.682Z,10.33
2024-01-19T11:48:45.853Z,9.30
2024-01-19T11:51:35.892Z,8.67
2024-01-19T11:54:08.105Z,9.80
2024-01-19T11:56:39.306Z,9.63
2024-01-19T11:59:09.482Z,9.33
2024-01-19T12:01:44.014Z,8.60
2024-01-19T12:04:18.752Z,8.40
2024-01-19T12:06:49.026Z,8.70
2024-01-19T12:09:20.620Z,9.20
2024-01-19T12:11:51.421Z,8.77
2024-01-19T12:14:21.555Z,10.10
2024-01-19T12:16:51.677Z,8.07
2024-01-19T12:19:24.447Z,9.67
2024-01-19T12:21:55.047Z,10.00
2024-01-19T12:24:25.960Z,9.47
2024-01-19T12:26:56.693Z,9.87
2024-01-19T12:29:33.963Z,9.33
2024-01-19T12:32:13.894Z,9.18
2024-01-19T12:35:00.484Z,8.37
2024-01-19T12:37:30.928Z,9.10
2024-01-19T12:40:15.116Z,9.37
2024-01-19T12:42:45.564Z,10.77
2024-01-19T12:45:16.360Z,10.73
2024-01-19T12:47:49.794Z,9.30
2024-01-19T12:50:24.237Z,10.37
2024-01-19T12:52:54.930Z,9.30
2024-01-19T12:55:32.139Z,9.03
2024-01-19T12:58:03.362Z,9.03
2024-01-19T13:00:34.948Z,9.50
2024-01-19T13:03:06.625Z,9.67
2024-01-19T13:05:37.297Z,9.40
2024-01-19T13:08:11.859Z,8.50
2024-01-19T13:10:42.415Z,10.60
2024-01-19T13:13:13.793Z,10.00
2024-01-19T13:15:43.864Z,9.77
2024-01-19T13:18:17.033Z,10.20
2024-01-19T13:20:49.941Z,9.60
2024-01-19T13:23:20.091Z,9.57
2024-01-19T13:25:56.655Z,10.20
2024-01-19T13:28:26.824Z,10.70
2024-01-19T13:30:57.136Z,10.80
2024-01-19T13:33:27.304Z,11.17
2024-01-19T13:36:00.059Z,10.17
2024-01-19T13:38:30.212Z,10.37
2024-01-19T13:41:00.709Z,11.00
2024-01-19T13:43:31.015Z,10.10
2024-01-19T13:46:01.087Z,10.07
2024-01-19T13:48:31.197Z,10.43
2024-01-19T13:51:04.238Z,11.03
2024-01-19T13:53:34.298Z,9.30
2024-01-19T13:56:04.895Z,9.50
2024-01-19T13:58:35.181Z,8.60
2024-01-19T14:01:05.498Z,8.77
2024-01-19T14:03:37.614Z,9.60
2024-01-19T14:06:10.881Z,8.70
2024-01-19T14:08:41.010Z,10.30
2024-01-19T14:11:11.298Z,10.50
2024-01-19T14:13:41.552Z,10.30
2024-01-19T14:16:11.736Z,9.77
2024-01-19T14:18:41.813Z,9.97
2024-01-19T14:21:14.986Z,9.63
2024-01-19T14:23:45.096Z,9.07
2024-01-19T14:26:15.762Z,10.10
2024-01-19T14:28:46.003Z,10.37
2024-01-19T14:31:16.245Z,9.47
2024-01-19T14:33:46.911Z,10.43
2024-01-19T14:36:19.586Z,10.30
2024-01-19T14:38:49.628Z,10.40
2024-01-19T14:41:19.793Z,11.10
2024-01-19T14:43:49.994Z,10.33
2024-01-19T14:46:20.560Z,9.70
2024-01-19T14:48:50.660Z,11.37
2024-01-19T14:51:23.808Z,11.90
2024-01-19T14:53:54.579Z,11.20
2024-01-19T14:56:24.952Z,11.50
2024-01-19T14:58:55.069Z,9.80
2024-01-19T15:01:25.213Z,10.60
2024-01-19T15:03:55.417Z,11.53
2024-01-19T15:06:28.117Z,11.30
2024-01-19T15:08:58.232Z,11.30
2024-01-19T15:11:28.437Z,11.10
2024-01-19T15:13:58.600Z,10.27
2024-01-19T15:16:28.886Z,11.30
2024-01-19T15:19:02.168Z,11.10
2024-01-19T15:21:34.926Z,11.40
2024-01-19T15:24:07.777Z,11.80
2024-01-19T15:26:40.464Z,12.60
2024-01-19T15:29:14.759Z,11.53
2024-01-19T15:31:45.438Z,13.27
2024-01-19T15:34:15.567Z,12.70
2024-01-19T15:36:48.206Z,13.53
2024-01-19T15:39:18.292Z,14.20
2024-01-19T15:41:48.359Z,13.47
2024-01-19T15:44:18.667Z,14.50
2024-01-19T15:46:48.919Z,15.23
2024-01-19T15:49:19.143Z,14.90
2024-01-19T15:51:51.993Z,16.03
2024-01-19T15:54:23.076Z,16.50
2024-01-19T15:56:53.213Z,17.23
2024-01-19T15:59:23.510Z,17.57
2024-01-19T16:01:53.656Z,18.60
2024-01-19T16:04:23.702Z,18.63
2024-01-19T16:06:56.436Z,19.17
2024-01-19T16:09:26.571Z,19.43
2024-01-19T16:11:57.958Z,21.43
2024-01-19T16:14:28.832Z,21.80
2024-01-19T16:17:00.304Z,21.30
2024-01-19T16:19:30.412Z,23.10
2024-01-19T16:22:04.040Z,22.70
2024-01-19T16:24:34.467Z,23.30
2024-01-19T16:27:05.033Z,23.90
2024-01-19T16:29:35.280Z,24.27
2024-01-19T16:32:08.127Z,24.03
2024-01-19T16:34:38.855Z,25.87
2024-01-19T16:37:11.554Z,25.23
2024-01-19T16:39:43.952Z,26.17
2024-01-19T16:42:15.964Z,26.25
2024-01-19T16:44:46.124Z,25.90
2024-01-19T16:47:16.203Z,28.37
2024-01-19T16:49:46.366Z,25.97
2024-01-19T16:52:19.110Z,28.57
2024-01-19T16:54:50.132Z,26.83
2024-01-19T16:57:20.347Z,26.07
2024-01-19T16:59:50.432Z,27.70
2024-01-19T17:02:20.846Z,28.13
2024-01-19T17:04:51.046Z,26.60
2024-01-19T17:07:23.841Z,27.80
2024-01-19T17:10:02.191Z,29.93
2024-01-19T17:12:32.466Z,26.27
2024-01-19T17:15:02.799Z,28.20
2024-01-19T17:17:32.914Z,28.15
2024-01-19T17:20:03.541Z,26.83
2024-01-19T17:22:36.428Z,28.20
2024-01-19T17:25:07.421Z,29.63
2024-01-19T17:27:37.525Z,26.93
2024-01-19T17:30:09.019Z,29.70
2024-01-19T17:32:39.391Z,29.70
2024-01-19T17:35:13.378Z,31.13
2024-01-19T17:37:46.883Z,29.42
2024-01-19T17:40:17.641Z,29.85
2024-01-19T17:42:47.797Z,31.00
2024-01-19T17:45:22.328Z,30.70
2024-01-19T17:47:54.423Z,29.20
2024-01-19T17:50:25.106Z,28.98
2024-01-19T17:52:57.989Z,30.13
2024-01-19T17:55:28.163Z,32.42
2024-01-19T17:57:58.897Z,28.50
2024-01-19T18:00:29.047Z,29.73
2024-01-19T18:03:00.460Z,28.40
2024-01-19T18:05:30.647Z,28.37
2024-01-19T18:08:03.770Z,28.10
2024-01-19T18:10:34.037Z,29.80
2024-01-19T18:13:04.833Z,28.15
2024-01-19T18:15:35.059Z,27.13
2024-01-19T18:18:08.123Z,26.47
2024-01-19T18:20:41.756Z,26.17
2024-01-19T18:23:14.723Z,26.55
2024-01-19T18:25:45.850Z,26.40
2024-01-19T18:28:16.133Z,27.30
2024-01-19T18:30:46.246Z,28.10
2024-01-19T18:33:16.791Z,25.37
2024-01-19T18:35:47.211Z,25.73
2024-01-19T18:38:20.380Z,24.93
2024-01-19T18:40:50.518Z,23.83
2024-01-19T18:43:20.698Z,25.08
2024-01-19T18:45:50.804Z,23.53
2024-01-19T18:48:20.973Z,23.20
2024-01-19T18:50:51.095Z,25.57
2024-01-19T18:53:23.896Z,26.20
2024-01-19T18:55:54.925Z,25.05
2024-01-19T18:58:25.324Z,24.58
2024-01-19T19:00:55.678Z,23.50
2024-01-19T19:03:26.202Z,23.55
2024-01-19T19:05:56.467Z,24.95
2024-01-19T19:08:29.269Z,22.97
2024-01-19T19:10:59.554Z,23.57
2024-01-19T19:13:32.381Z,23.40
2024-01-19T19:16:03.403Z,22.20
2024-01-19T19:18:33.965Z,22.20
2024-01-19T19:21:04.102Z,23.00
2024-01-19T19:23:36.768Z,23.08
2024-01-19T19:26:14.413Z,23.27
2024-01-19T19:28:44.976Z,23.20
2024-01-19T19:31:15.418Z,23.63
2024-01-19T19:33:45.517Z,24.58
2024-01-19T19:36:16.361Z,24.87
2024-01-19T19:38:49.043Z,22.92
2024-01-19T19:41:19.767Z,24.23
2024-01-19T19:43:49.898Z,24.95
2024-01-19T19:46:20.256Z,24.65
2024-01-19T19:48:50.449Z,26.03
2024-01-19T19:51:20.542Z,26.25
2024-01-19T19:53:53.240Z,26.43
2024-01-19T19:56:23.382Z,25.30
2024-01-19T19:58:53.689Z,26.30
2024-01-19T20:01:26.153Z,25.38
2024-01-19T20:03:56.306Z,27.38
2024-01-19T20:06:26.792Z,26.00
2024-01-19T20:08:59.543Z,27.05
2024-01-19T20:11:29.910Z,26.77
2024-01-19T20:14:00.429Z,26.20
2024-01-19T20:16:30.668Z,27.77
2024-01-19T20:19:00.971Z,27.98
2024-01-19T20:21:31.100Z,27.77
2024-01-19T20:24:03.878Z,28.02
2024-01-19T20:26:34.998Z,26.52
2024-01-19T20:29:07.175Z,30.13
2024-01-19T20:31:37.365Z,26.97
2024-01-19T20:34:07.552Z,27.73
2024-01-19T20:36:38.167Z,27.80
2024-01-19T20:39:10.992Z,27.30
2024-01-19T20:41:41.182Z,27.48
2024-01-19T20:44:12.453Z,28.63
2024-01-19T20:46:43.906Z,26.20
2024-01-19T20:49:14.177Z,28.88
2024-01-19T20:51:44.248Z,26.98
2024-01-19T20:54:16.985Z,28.27
2024-01-19T20:56:47.093Z,27.52
2024-01-19T20:59:17.680Z,26.10
2024-01-19T21:01:48.226Z,27.60
2024-01-19T21:04:18.692Z,27.45
2024-01-19T21:06:49.206Z,28.25
2024-01-19T21:09:22.377Z,26.98
2024-01-19T21:11:52.644Z,26.90
2024-01-19T21:14:23.010Z,28.77
2024-01-19T21:16:54.247Z,28.40
2024-01-19T21:19:24.476Z,29.17
2024-01-19T21:21:55.125Z,30.00
2024-01-19T21:24:27.824Z,28.52
2024-01-19T21:26:57.886Z,29.25
2024-01-19T21:29:28.005Z,29.60
2024-01-19T21:31:58.154Z,30.15
2024-01-19T21:34:28.361Z,30.10
2024-01-19T21:36:58.534Z,29.27
2024-01-19T21:39:31.519Z,28.30
2024-01-19T21:42:02.542Z,28.88
2024-01-19T21:44:32.937Z,29.60
2024-01-19T21:47:05.306Z,29.92
2024-01-19T21:49:35.722Z,29.85
2024-01-19T21:52:06.628Z,29.25
2024-01-19T21:54:39.424Z,29.52
2024-01-19T21:57:09.675Z,30.23
2024-01-19T21:59:41.293Z,29.00
2024-01-19T22:02:11.873Z,28.00
2024-01-19T22:04:43.260Z,29.70
2024-01-19T22:07:14.961Z,28.95
2024-01-19T22:09:48.032Z,32.80
2024-01-19T22:12:18.240Z,30.95
2024-01-19T22:14:48.590Z,29.88
2024-01-19T22:17:18.716Z,31.48
2024-01-19T22:19:50.175Z,32.53
2024-01-19T22:22:20.361Z,31.25
2024-01-19T22:24:52.999Z,31.83
2024-01-19T22:27:23.072Z,31.60
2024-01-19T22:29:53.201Z,31.63
2024-01-19T22:32:23.650Z,32.15
2024-01-19T22:34:54.210Z,32.65
2024-01-19T22:37:24.453Z,31.88
2024-01-19T22:39:57.183Z,34.35
2024-01-19T22:42:27.255Z,35.05
2024-01-19T22:44:57.381Z,34.63
2024-01-19T22:47:27.610Z,33.67
2024-01-19T22:49:57.840Z,31.98
2024-01-19T22:52:28.045Z,27.60
2024-01-19T22:55:00.770Z,33.07
2024-01-19T22:57:31.714Z,32.80
2024-01-19T23:00:01.879Z,33.90
2024-01-19T23:02:35.480Z,33.47
2024-01-19T23:05:10.829Z,33.77
2024-01-19T23:07:41.219Z,33.70
2024-01-19T23:10:15.142Z,33.55
2024-01-19T23:12:45.280Z,32.00
2024-01-19T23:15:19.244Z,33.50
2024-01-19T23:17:49.805Z,33.20
2024-01-19T23:20:20.344Z,33.83
2024-01-19T23:22:50.566Z,33.95
2024-01-19T23:25:30.381Z,32.20
2024-01-19T23:28:07.054Z,34.15
2024-01-19T23:30:37.654Z,34.75
2024-01-19T23:33:08.332Z,34.08
2024-01-19T23:35:38.728Z,33.67
2024-01-19T23:38:09.263Z,36.20
2024-01-19T23:40:42.057Z,33.50
2024-01-19T23:43:13.239Z,35.17
2024-01-19T23:45:43.420Z,35.60
2024-01-19T23:48:13.617Z,34.78
2024-01-19T23:50:43.746Z,35.35
2024-01-19T23:53:13.912Z,35.38
2024-01-19T23:55:46.817Z,34.75
2024-01-19T23:58:16.896Z,35.20
